AirNav   Textron
 
 1620 users online  

FL01 Crews Homestead Ranch Airport
Avon Park, Florida, USA

GOING TO AVON PARK?


FAA INFORMATION EFFECTIVE 20 JULY 2017

Location

FAA Identifier: FL01
Lat/Long: 27-37-16.1200N / 081-36-38.2800W
27-37.268667N / 081-36.638000W
27.6211444 / -81.6106333
(estimated)
Elevation: 90 ft. / 27 m (estimated)
Variation: 03W (1990)
From city: 6 miles W of AVON PARK, FL
Time zone: UTC -4 (UTC -5 during Standard Time)
Zip code: 33825

Airport Operations

Airport use: Private use. Permission required prior to landing
Activation date: 01/1994
Control tower: no
ARTCC: MIAMI CENTER
FSS: SAINT PETERSBURG FLIGHT SERVICE STATION
Attendance: UNATNDD
Wind indicator: yes
Segmented circle: no

Airport Communications

WX AWOS-3 at AVO (5 nm E): 118.725 (863-453-4223)
WX AWOS-3 at X07 (16 nm N): 124.225 (863-678-1334)
WX AWOS-3 at SEF (17 nm SE): 119.475 (863-655-6424)

Nearby radio navigation aids

VOR radial/distance  VOR name  Freq  Var
LALr135/30.6LAKELAND VORTAC116.0001E

Airport Services

Runway Information

Runway 14/32

Dimensions: 3125 x 50 ft. / 952 x 15 m
Surface: turf
RUNWAY 14  RUNWAY 32
Traffic pattern: leftleft
Displaced threshold: 855 ft.510 ft.
Obstructions: 50 ft. trees, 300 ft. from runway30 ft. pline, marked, 30 ft. from runway

Airport Ownership and Management from official FAA records

Ownership: Privately-owned
Owner: CREWS GROVES INC
PO BOX 1117
AVON PARK, FL 33825
Phone 863-453-3040
Manager: ROBERT CREWS
PO BOX 1117
AVON PARK, FL 33825
Phone 863-453-3382

Airport Operational Statistics

Aircraft based on the field: 1
Helicopters: 1
    

Instrument Procedures

There are no published instrument procedures at FL01.

Some nearby airports with instrument procedures:

KAVO - Avon Park Executive Airport (5 nm E)
KCHN - Wauchula Municipal Airport (16 nm SW)
X07 - Lake Wales Municipal Airport (16 nm N)
KSEF - Sebring Regional Airport (17 nm SE)
KBOW - Bartow Municipal Airport (21 nm NW)
 
Loc | Ops | Rwys | IFR | FBO | Links
Com | Nav | Svcs | Stats | Notes


 
Area around FL01 (Crews Homestead Ranch Airport)
 
Road maps at: MapQuest Bing Google
 
Aerial photo
No photo
 
Sectional chart

 
Airport distance calculator
Flying to Crews Homestead Ranch Airport? Find the distance to fly.

From to FL01

Sunrise and sunset
Times for 26-Jul-2017
 Local
(UTC-4)
 Zulu
(UTC)
Morning civil twilight06:2210:22
Sunrise06:4710:47
Sunset20:1800:18
Evening civil twilight20:4400:44

Current date and time
Zulu (UTC)  26-Jul-2017 17:04:22
Local (UTC-4)  26-Jul-2017 13:04:22
 
METAR
KSEF 
17nm SE 
261655Z AUTO 17005KT 10SM SCT038 35/23 A3010 RMK AO2 T03460231
KBOW 
20nm NW 
261645Z VRB04KT 10SM SCT030 32/23 A3010
KGIF 
28nm N 
261653Z AUTO 32004KT 10SM CLR 34/22 A3011 RMK AO2 SLP192 T03390217
KLAL 
30nm NW 
261645Z 00000KT 10SM SCT075 32/22 A3011
TAF
KLAL 
30nm NW 
261125Z 2612/2712 VRB03KT P6SM FEW035 SCT120 FM261400 VRB03KT P6SM FEW035 SCT200 FM262100 23005KT P6SM VCTS BKN050CB FM270300 VRB03KT P6SM BKN035 FM270700 VRB03KT P6SM FEW035 SCT150
NOTAMs
Click for the latest NOTAMs
NOTAMs are issued by the DoD/FAA and will open in a separate window not controlled by AirNav.

 

 
 

Would you like to see your business listed on this page?

 If your business provides an interesting product or service to pilots, flight crews, aircraft, or users of the Crews Homestead Ranch Airport, you should consider listing it here.  To start the listing process, click on the button below
 
Add a business
 

Other Pages about Crews Homestead Ranch Airport

Update a link
 
Copyright © AirNav, LLC. All rights reserved. Privacy Policy  Contact